createdAt,value
2018-05-06T00:01:31.745Z,62.21
2018-05-06T00:03:59.258Z,62.50
2018-05-06T00:06:27.042Z,62.39
2018-05-06T00:08:54.652Z,62.61
2018-05-06T00:11:22.254Z,62.74
2018-05-06T00:13:49.804Z,62.92
2018-05-06T00:16:17.420Z,62.95
2018-05-06T00:18:44.922Z,63.22
2018-05-06T00:21:13.046Z,63.48
2018-05-06T00:23:40.604Z,63.60
2018-05-06T00:26:08.144Z,63.35
2018-05-06T00:28:35.672Z,63.84
2018-05-06T00:31:03.216Z,63.81
2018-05-06T00:33:30.792Z,64.00
2018-05-06T00:35:58.353Z,64.38
2018-05-06T00:38:25.917Z,64.55
2018-05-06T00:40:53.455Z,64.19
2018-05-06T00:43:22.016Z,64.42
2018-05-06T00:45:49.535Z,64.54
2018-05-06T00:48:17.068Z,63.88
2018-05-06T00:50:44.608Z,64.55
2018-05-06T00:53:12.343Z,64.31
2018-05-06T00:55:39.860Z,64.49
2018-05-06T00:58:07.382Z,64.60
2018-05-06T01:00:34.921Z,64.77
2018-05-06T01:03:03.095Z,64.97
2018-05-06T01:05:30.611Z,64.87
2018-05-06T01:07:58.161Z,64.80
2018-05-06T01:10:25.725Z,64.89
2018-05-06T01:12:53.305Z,64.53
2018-05-06T01:15:20.831Z,64.53
2018-05-06T01:17:48.396Z,64.87
2018-05-06T01:20:15.961Z,65.10
2018-05-06T01:22:43.503Z,65.23
2018-05-06T01:25:11.018Z,65.07
2018-05-06T01:27:38.547Z,65.08
2018-05-06T01:30:06.075Z,65.12
2018-05-06T01:32:33.784Z,65.18
2018-05-06T01:35:01.296Z,65.17
2018-05-06T01:37:28.847Z,65.00
2018-05-06T01:39:56.429Z,65.16
2018-05-06T01:42:24.309Z,65.22
2018-05-06T01:44:51.875Z,65.55
2018-05-06T01:47:19.445Z,65.60
2018-05-06T01:49:47.014Z,65.71
2018-05-06T01:52:14.644Z,65.95
2018-05-06T01:54:42.193Z,66.02
2018-05-06T01:57:09.782Z,66.18
2018-05-06T01:59:37.335Z,66.25
2018-05-06T02:02:04.972Z,66.46
2018-05-06T02:04:32.529Z,66.50
2018-05-06T02:07:00.107Z,66.68
2018-05-06T02:09:27.606Z,66.72
2018-05-06T02:11:55.168Z,66.35
2018-05-06T02:14:22.689Z,65.96
2018-05-06T02:16:50.236Z,66.11
2018-05-06T02:19:17.865Z,65.86
2018-05-06T02:21:45.399Z,65.47
2018-05-06T02:24:12.923Z,65.38
2018-05-06T02:26:40.987Z,65.55
2018-05-06T02:29:08.519Z,65.75
2018-05-06T02:31:36.074Z,65.80
2018-05-06T02:34:03.583Z,65.97
2018-05-06T02:36:31.135Z,66.09
2018-05-06T02:38:58.689Z,66.24
2018-05-06T02:41:26.200Z,66.25
2018-05-06T02:43:53.986Z,66.60
2018-05-06T02:46:21.702Z,66.55
2018-05-06T02:48:49.251Z,66.62
2018-05-06T02:51:16.788Z,66.34
2018-05-06T02:53:44.323Z,66.48
2018-05-06T02:56:12.898Z,66.50
2018-05-06T02:58:40.428Z,66.86
2018-05-06T03:01:07.958Z,67.29
2018-05-06T03:03:35.580Z,67.75
2018-05-06T03:06:03.286Z,68.07
2018-05-06T03:08:30.830Z,68.03
2018-05-06T03:10:58.498Z,68.20
2018-05-06T03:13:26.075Z,67.98
2018-05-06T03:15:53.609Z,67.40
2018-05-06T03:18:21.132Z,67.60
2018-05-06T03:20:48.695Z,67.16
2018-05-06T03:23:16.265Z,67.29
2018-05-06T03:25:43.796Z,66.74
2018-05-06T03:28:11.408Z,66.83
2018-05-06T03:30:38.986Z,66.44
2018-05-06T03:33:06.512Z,66.26
2018-05-06T03:35:34.065Z,66.30
2018-05-06T03:38:01.582Z,66.68
2018-05-06T03:40:31.174Z,66.71
2018-05-06T03:42:58.690Z,67.16
2018-05-06T03:45:26.270Z,67.56
2018-05-06T03:47:54.646Z,67.21
2018-05-06T03:50:22.181Z,66.08
2018-05-06T03:52:49.681Z,65.95
2018-05-06T03:55:17.205Z,65.17
2018-05-06T04:00:51.877Z,65.11
2018-05-06T04:03:19.588Z,65.01
2018-05-06T04:05:48.059Z,64.21
2018-05-06T04:08:15.589Z,64.00
2018-05-06T04:10:43.126Z,64.54
2018-05-06T04:13:10.686Z,63.94
2018-05-06T04:15:38.221Z,63.73
2018-05-06T04:18:05.887Z,63.37
2018-05-06T04:20:33.463Z,64.41
2018-05-06T04:23:00.966Z,64.40
2018-05-06T04:25:28.498Z,64.08
2018-05-06T04:27:56.314Z,63.44
2018-05-06T04:30:23.891Z,63.42
2018-05-06T04:32:51.405Z,63.61
2018-05-06T04:35:18.944Z,63.34
2018-05-06T04:37:46.722Z,62.99
2018-05-06T04:40:14.270Z,62.79
2018-05-06T04:42:41.794Z,63.16
2018-05-06T04:45:09.297Z,62.43
2018-05-06T04:47:36.806Z,61.84
2018-05-06T04:50:04.352Z,61.49
2018-05-06T04:52:31.987Z,61.12
2018-05-06T04:54:59.456Z,60.71
2018-05-06T04:57:27.091Z,59.35
2018-05-06T04:59:54.726Z,58.86
2018-05-06T05:02:22.303Z,59.35
2018-05-06T05:04:50.074Z,60.27
2018-05-06T05:07:17.727Z,59.75
2018-05-06T05:09:45.258Z,60.34
2018-05-06T05:12:13.785Z,58.86
2018-05-06T05:14:42.393Z,58.41
2018-05-06T05:17:10.003Z,58.37
2018-05-06T05:19:37.534Z,59.02
2018-05-06T05:22:05.088Z,58.57
2018-05-06T05:24:32.683Z,58.43
2018-05-06T05:27:00.235Z,58.32
2018-05-06T05:29:27.819Z,57.89
2018-05-06T05:31:55.378Z,57.09
2018-05-06T05:34:23.037Z,57.30
2018-05-06T05:36:50.565Z,56.38
2018-05-06T05:39:18.136Z,55.09
2018-05-06T05:41:45.695Z,55.01
2018-05-06T05:44:13.381Z,55.22
2018-05-06T05:46:40.929Z,54.72
2018-05-06T05:49:08.763Z,54.69
2018-05-06T05:51:36.274Z,53.97
2018-05-06T05:54:04.129Z,53.40
2018-05-06T05:56:31.685Z,53.54
2018-05-06T05:58:59.218Z,53.78
2018-05-06T06:01:27.219Z,53.53
2018-05-06T06:03:54.767Z,52.53
2018-05-06T06:06:22.303Z,52.23
2018-05-06T06:08:49.834Z,51.55
2018-05-06T06:11:17.444Z,50.04
2018-05-06T06:13:44.984Z,49.88
2018-05-06T06:16:12.523Z,51.18
2018-05-06T06:18:40.224Z,49.91
2018-05-06T06:21:07.737Z,48.98
2018-05-06T06:23:35.262Z,49.99
2018-05-06T06:26:02.848Z,49.52
2018-05-06T06:28:30.382Z,49.76
2018-05-06T06:30:57.990Z,49.81
2018-05-06T06:33:25.504Z,48.70
2018-05-06T06:35:53.053Z,49.07
2018-05-06T06:38:20.656Z,48.38
2018-05-06T06:40:48.845Z,47.43
2018-05-06T06:43:16.397Z,48.31
2018-05-06T06:45:44.108Z,47.74
2018-05-06T06:48:11.672Z,46.42
2018-05-06T06:50:39.318Z,46.31
2018-05-06T06:53:06.992Z,47.19
2018-05-06T06:55:34.848Z,46.54
2018-05-06T06:58:03.961Z,47.19
2018-05-06T07:06:29.159Z,43.51
2018-05-06T07:08:56.684Z,43.39
2018-05-06T07:11:24.266Z,44.49
2018-05-06T07:13:51.839Z,44.79
2018-05-06T07:16:19.462Z,44.30
2018-05-06T07:18:47.003Z,44.11
2018-05-06T07:21:24.223Z,43.56
2018-05-06T07:23:52.323Z,43.66
2018-05-06T07:26:19.880Z,42.81
2018-05-06T07:28:47.541Z,42.69
2018-05-06T07:31:15.264Z,42.21
2018-05-06T07:33:42.897Z,43.07
2018-05-06T07:36:11.286Z,42.95
2018-05-06T07:38:38.821Z,42.60
2018-05-06T07:41:06.362Z,41.44
2018-05-06T07:43:33.877Z,41.61
2018-05-06T07:46:01.466Z,41.81
2018-05-06T07:48:29.038Z,42.10
2018-05-06T07:50:56.606Z,41.74
2018-05-06T07:53:24.147Z,41.73
2018-05-06T07:55:52.095Z,41.73
2018-05-06T07:58:19.614Z,41.43
2018-05-06T08:00:47.148Z,40.74
2018-05-06T08:03:14.680Z,40.72
2018-05-06T08:05:42.229Z,39.54
2018-05-06T08:08:09.751Z,40.25
2018-05-06T08:10:37.303Z,39.76
2018-05-06T08:13:04.848Z,40.59
2018-05-06T08:15:32.456Z,39.11
2018-05-06T08:18:00.061Z,38.81
2018-05-06T08:20:27.587Z,39.19
2018-05-06T08:22:55.166Z,38.88
2018-05-06T08:25:22.674Z,38.72
2018-05-06T08:27:50.226Z,38.41
2018-05-06T08:30:17.777Z,39.28
2018-05-06T08:32:45.301Z,37.65
2018-05-06T08:35:12.834Z,39.09
2018-05-06T08:37:40.545Z,37.60
2018-05-06T08:40:08.154Z,37.20
2018-05-06T08:42:35.828Z,37.58
2018-05-06T08:45:03.535Z,36.87
2018-05-06T08:47:31.047Z,37.88
2018-05-06T08:49:58.587Z,38.05
2018-05-06T08:52:26.125Z,39.00
2018-05-06T08:54:53.706Z,38.53
2018-05-06T08:57:21.248Z,37.10
2018-05-06T08:59:48.994Z,35.39
2018-05-06T09:02:16.520Z,36.22
2018-05-06T09:04:44.072Z,35.84
2018-05-06T09:07:11.583Z,35.96
2018-05-06T09:09:39.093Z,35.85
2018-05-06T09:12:06.752Z,35.39
2018-05-06T09:14:34.270Z,34.61
2018-05-06T09:17:01.814Z,35.36
2018-05-06T09:19:29.598Z,35.02
2018-05-06T09:21:57.182Z,35.00
2018-05-06T09:24:24.682Z,33.70
2018-05-06T09:26:52.201Z,35.17
2018-05-06T09:29:19.735Z,33.63
2018-05-06T09:31:47.348Z,34.28
2018-05-06T09:34:14.915Z,32.76
2018-05-06T09:36:42.468Z,33.06
2018-05-06T09:39:10.127Z,32.93
2018-05-06T09:41:37.667Z,33.12
2018-05-06T09:44:05.246Z,33.38
2018-05-06T09:46:32.760Z,33.56
2018-05-06T09:49:00.270Z,32.71
2018-05-06T09:51:27.807Z,32.71
2018-05-06T09:53:55.430Z,32.85
2018-05-06T09:56:22.882Z,32.93
2018-05-06T09:58:50.428Z,33.30
2018-05-06T10:01:17.974Z,32.51
2018-05-06T10:03:45.505Z,32.00
2018-05-06T10:06:13.029Z,32.94
2018-05-06T10:08:40.619Z,33.82
2018-05-06T10:11:09.186Z,32.51
2018-05-06T10:13:36.721Z,32.18
2018-05-06T10:16:04.258Z,31.54
2018-05-06T10:18:32.189Z,31.51
2018-05-06T10:20:59.679Z,31.59
2018-05-06T10:23:27.789Z,31.27
2018-05-06T10:25:55.325Z,30.60
2018-05-06T10:28:23.065Z,31.68
2018-05-06T10:30:50.745Z,31.16
2018-05-06T10:33:18.272Z,30.87
2018-05-06T10:35:46.028Z,31.31
2018-05-06T10:38:13.577Z,29.62
2018-05-06T10:40:41.430Z,31.57
2018-05-06T10:43:08.952Z,30.14
2018-05-06T10:45:44.562Z,30.77
2018-05-06T10:51:56.191Z,29.88
2018-05-06T10:54:49.227Z,31.02
2018-05-06T11:00:07.398Z,30.27
2018-05-06T11:02:42.772Z,29.60
2018-05-06T11:05:32.564Z,30.20
2018-05-06T11:08:11.617Z,29.75
2018-05-06T11:19:15.627Z,29.87
2018-05-06T11:21:57.524Z,29.82
2018-05-06T11:30:16.190Z,28.52
2018-05-06T11:33:05.414Z,27.59
2018-05-06T11:41:04.262Z,26.18
2018-05-06T11:43:31.800Z,26.47
2018-05-06T11:45:59.380Z,26.56
2018-05-06T11:48:26.893Z,25.65
2018-05-06T11:50:54.404Z,24.69
2018-05-06T11:53:21.929Z,23.93
2018-05-06T11:55:49.446Z,23.54
2018-05-06T11:58:16.973Z,22.13
2018-05-06T12:00:44.527Z,21.69
2018-05-06T12:03:12.071Z,21.04
2018-05-06T12:05:39.616Z,19.86
2018-05-06T12:08:07.243Z,18.41
2018-05-06T12:10:34.778Z,16.67
2018-05-06T12:13:02.320Z,14.76
2018-05-06T12:15:29.917Z,13.82
2018-05-06T12:17:57.550Z,13.10
2018-05-06T12:20:25.132Z,12.48
2018-05-06T12:22:52.707Z,12.56
2018-05-06T12:25:20.232Z,12.21
2018-05-06T12:27:47.783Z,11.87
2018-05-06T12:30:15.346Z,12.17
2018-05-06T12:32:42.956Z,12.60
2018-05-06T12:35:10.481Z,12.11
2018-05-06T12:37:38.006Z,11.34
2018-05-06T12:40:05.587Z,10.69
2018-05-06T12:42:33.143Z,10.81
2018-05-06T12:45:00.677Z,10.41
2018-05-06T12:47:28.281Z,10.01
2018-05-06T12:49:55.807Z,9.67
2018-05-06T12:52:23.353Z,10.24
2018-05-06T12:54:50.880Z,9.60
2018-05-06T12:57:18.514Z,9.52
2018-05-06T12:59:46.081Z,9.09
2018-05-06T13:02:13.616Z,8.50
2018-05-06T13:04:41.207Z,8.23
2018-05-06T13:07:08.934Z,8.25
2018-05-06T13:09:36.510Z,8.08
2018-05-06T13:12:04.148Z,8.43
2018-05-06T13:14:32.612Z,8.30
2018-05-06T13:17:00.234Z,8.24
2018-05-06T13:19:27.792Z,7.19
2018-05-06T13:21:56.261Z,7.47
2018-05-06T13:24:24.448Z,7.71
2018-05-06T13:26:52.097Z,8.26
2018-05-06T13:29:19.633Z,8.07
2018-05-06T13:31:47.184Z,7.89
2018-05-06T13:34:14.732Z,7.74
2018-05-06T13:36:42.521Z,8.04
2018-05-06T13:39:10.177Z,8.40
2018-05-06T13:41:38.552Z,8.15
2018-05-06T13:44:06.161Z,8.39
2018-05-06T13:46:33.709Z,8.48
2018-05-06T13:49:01.391Z,7.97
2018-05-06T13:51:28.920Z,7.71
2018-05-06T13:53:56.433Z,8.38
2018-05-06T13:56:23.978Z,7.48
2018-05-06T13:58:51.502Z,7.41
2018-05-06T14:01:19.040Z,7.25
2018-05-06T14:03:46.564Z,7.10
2018-05-06T14:06:14.360Z,6.73
2018-05-06T14:08:41.886Z,6.57
2018-05-06T14:11:09.487Z,6.26
2018-05-06T14:13:37.012Z,6.47
2018-05-06T14:16:04.554Z,6.61
2018-05-06T14:18:32.093Z,6.97
2018-05-06T14:20:59.628Z,6.75
2018-05-06T14:23:27.157Z,6.86
2018-05-06T14:25:54.699Z,6.68
2018-05-06T14:28:22.850Z,6.67
2018-05-06T14:30:50.361Z,7.16
2018-05-06T14:33:17.895Z,7.38
2018-05-06T14:35:45.679Z,6.63
2018-05-06T14:38:13.215Z,6.60
2018-05-06T14:40:40.718Z,6.37
2018-05-06T14:43:08.235Z,6.26
2018-05-06T14:45:35.786Z,6.08
2018-05-06T14:48:13.343Z,6.02
2018-05-06T14:50:40.926Z,6.13
2018-05-06T14:53:08.441Z,5.44
2018-05-06T14:55:36.018Z,5.94
2018-05-06T14:58:03.762Z,5.75
2018-05-06T15:00:31.272Z,5.77
2018-05-06T15:02:58.827Z,6.09
2018-05-06T15:05:26.756Z,5.89
2018-05-06T15:07:54.310Z,5.93
2018-05-06T15:10:21.976Z,5.68
2018-05-06T15:12:49.587Z,6.12
2018-05-06T15:15:17.123Z,5.79
2018-05-06T15:17:44.657Z,5.63
2018-05-06T15:20:12.219Z,6.52
2018-05-06T15:22:39.747Z,5.81
2018-05-06T15:25:07.336Z,6.20
2018-05-06T15:27:34.832Z,5.81
2018-05-06T15:30:02.418Z,5.87
2018-05-06T15:32:29.966Z,5.36
2018-05-06T15:34:57.455Z,5.59
2018-05-06T15:37:25.001Z,5.87
2018-05-06T15:39:52.521Z,5.41
2018-05-06T15:42:20.069Z,5.98
2018-05-06T15:44:47.618Z,6.20
2018-05-06T15:47:15.123Z,5.59
2018-05-06T15:49:42.667Z,5.83
2018-05-06T15:52:10.328Z,5.93
2018-05-06T15:54:38.331Z,6.02
2018-05-06T15:57:05.919Z,7.04
2018-05-06T15:59:33.648Z,6.58
2018-05-06T16:02:06.991Z,6.44
2018-05-06T16:04:34.585Z,6.63
2018-05-06T16:07:02.111Z,6.61
2018-05-06T16:09:30.353Z,6.62
2018-05-06T16:11:57.964Z,6.26
2018-05-06T16:14:25.540Z,6.86
2018-05-06T16:16:53.089Z,6.96
2018-05-06T16:19:20.719Z,7.05
2018-05-06T16:21:48.303Z,7.25
2018-05-06T16:24:15.893Z,7.30
2018-05-06T16:26:43.533Z,7.46
2018-05-06T16:29:11.046Z,7.69
2018-05-06T16:31:38.773Z,7.58
2018-05-06T16:34:06.326Z,8.13
2018-05-06T16:36:33.858Z,8.25
2018-05-06T16:39:01.492Z,8.46
2018-05-06T16:41:29.050Z,8.51
2018-05-06T16:43:56.572Z,8.36
2018-05-06T16:46:24.111Z,8.71
2018-05-06T16:48:51.646Z,9.17
2018-05-06T16:51:19.193Z,9.03
2018-05-06T16:53:46.886Z,9.35
2018-05-06T16:56:14.487Z,9.54
2018-05-06T16:58:42.031Z,9.59
2018-05-06T17:01:09.599Z,9.61
2018-05-06T17:03:38.225Z,9.98
2018-05-06T17:06:05.778Z,9.83
2018-05-06T17:08:33.331Z,9.99
2018-05-06T17:11:00.920Z,10.18
2018-05-06T17:13:28.432Z,10.23
2018-05-06T17:15:55.960Z,10.38
2018-05-06T17:18:23.490Z,10.18
2018-05-06T17:20:51.012Z,10.83
2018-05-06T17:23:18.684Z,10.54
2018-05-06T17:25:46.216Z,10.21
2018-05-06T17:28:13.838Z,10.84
2018-05-06T17:30:41.374Z,11.18
2018-05-06T17:33:08.921Z,11.67
2018-05-06T17:35:36.492Z,12.80
2018-05-06T17:38:04.028Z,15.49
2018-05-06T17:40:31.704Z,15.48
2018-05-06T17:42:59.225Z,16.45
2018-05-06T17:45:26.719Z,17.13
2018-05-06T17:47:54.309Z,17.42
2018-05-06T17:50:21.827Z,18.60
2018-05-06T17:52:49.513Z,19.52
2018-05-06T17:55:17.055Z,19.54
2018-05-06T17:57:50.519Z,20.07
2018-05-06T18:00:18.060Z,20.57
2018-05-06T18:02:45.578Z,20.88
2018-05-06T18:05:13.285Z,21.31
2018-05-06T18:07:40.923Z,23.39
2018-05-06T18:10:08.469Z,22.40
2018-05-06T18:12:36.048Z,22.13
2018-05-06T18:15:03.573Z,22.80
2018-05-06T18:17:31.134Z,23.00
2018-05-06T18:19:58.670Z,23.16
2018-05-06T18:22:26.228Z,24.21
2018-05-06T18:24:54.314Z,24.88
2018-05-06T18:27:21.894Z,25.44
2018-05-06T18:29:49.451Z,25.12
2018-05-06T18:32:17.087Z,26.06
2018-05-06T18:34:44.786Z,26.25
2018-05-06T18:37:12.402Z,26.54
2018-05-06T18:39:39.932Z,27.48
2018-05-06T18:42:07.571Z,27.48
2018-05-06T18:44:35.187Z,27.75
2018-05-06T18:47:02.877Z,27.53
2018-05-06T18:49:30.463Z,28.32
2018-05-06T18:51:58.029Z,28.48
2018-05-06T18:54:25.560Z,29.11
2018-05-06T18:56:53.105Z,29.78
2018-05-06T18:59:20.676Z,30.28
2018-05-06T19:01:48.301Z,30.55
2018-05-06T19:04:15.927Z,30.36
2018-05-06T19:06:43.475Z,31.38
2018-05-06T19:09:11.050Z,30.90
2018-05-06T19:11:38.637Z,31.45
2018-05-06T19:14:06.353Z,31.25
2018-05-06T19:16:33.899Z,31.34
2018-05-06T19:19:01.458Z,32.13
2018-05-06T19:21:29.235Z,32.20
2018-05-06T19:23:56.804Z,32.78
2018-05-06T19:26:24.392Z,33.73
2018-05-06T19:28:51.938Z,33.08
2018-05-06T19:31:19.493Z,33.11
2018-05-06T19:33:47.040Z,33.81
2018-05-06T19:36:14.603Z,34.02
2018-05-06T19:38:42.535Z,34.61
2018-05-06T19:41:10.337Z,34.20
2018-05-06T19:43:38.008Z,34.06
2018-05-06T19:46:05.549Z,34.45
2018-05-06T19:48:33.261Z,34.14
2018-05-06T19:51:00.976Z,34.76
2018-05-06T19:53:28.726Z,36.76
2018-05-06T19:55:56.260Z,34.33
2018-05-06T19:58:23.868Z,34.93
2018-05-06T20:00:51.540Z,35.30
2018-05-06T20:03:19.173Z,36.30
2018-05-06T20:05:46.933Z,38.21
2018-05-06T20:08:14.480Z,35.33
2018-05-06T20:10:42.268Z,36.51
2018-05-06T20:13:09.876Z,35.78
2018-05-06T20:15:37.545Z,36.07
2018-05-06T20:18:05.057Z,37.23
2018-05-06T20:20:32.815Z,35.98
2018-05-06T20:23:00.453Z,36.17
2018-05-06T20:25:28.928Z,36.07
2018-05-06T20:27:56.449Z,35.54
2018-05-06T20:30:24.008Z,37.29
2018-05-06T20:32:51.681Z,35.98
2018-05-06T20:35:19.351Z,36.30
2018-05-06T20:37:46.911Z,36.42
2018-05-06T20:40:14.426Z,37.36
2018-05-06T20:42:42.000Z,37.22
2018-05-06T20:45:09.646Z,39.05
2018-05-06T20:47:37.179Z,41.52
2018-05-06T20:50:04.809Z,37.50
2018-05-06T20:52:32.428Z,39.06
2018-05-06T20:54:59.935Z,43.99
2018-05-06T20:57:27.551Z,49.07
2018-05-06T20:59:55.283Z,45.23
2018-05-06T21:02:22.825Z,48.48
2018-05-06T21:04:50.414Z,51.79
2018-05-06T21:07:18.013Z,44.19
2018-05-06T21:09:45.650Z,44.18
2018-05-06T21:12:13.403Z,42.06
2018-05-06T21:14:41.064Z,38.50
2018-05-06T21:17:08.582Z,33.70
2018-05-06T21:19:36.089Z,34.40
2018-05-06T21:22:03.675Z,34.42
2018-05-06T21:24:31.200Z,32.83
2018-05-06T21:26:58.737Z,33.32
2018-05-06T21:29:26.377Z,36.69
2018-05-06T21:31:53.947Z,33.34
2018-05-06T21:34:21.517Z,34.48
2018-05-06T21:36:49.201Z,35.10
2018-05-06T21:39:16.675Z,35.11
2018-05-06T21:41:44.169Z,35.92
2018-05-06T21:44:11.718Z,36.36
2018-05-06T21:46:39.234Z,36.99
2018-05-06T21:49:06.679Z,36.58
2018-05-06T21:51:34.210Z,37.62
2018-05-06T21:54:01.925Z,38.16
2018-05-06T21:56:29.397Z,37.25
2018-05-06T21:58:56.917Z,37.46
2018-05-06T22:01:24.475Z,38.71
2018-05-06T22:03:51.953Z,38.37
2018-05-06T22:06:19.440Z,38.87
2018-05-06T22:08:46.930Z,38.79
2018-05-06T22:11:14.427Z,39.13
2018-05-06T22:13:42.156Z,38.75
2018-05-06T22:16:09.646Z,39.41
2018-05-06T22:18:37.160Z,39.69
2018-05-06T22:21:04.657Z,39.91
2018-05-06T22:23:32.163Z,39.14
2018-05-06T22:25:59.676Z,39.44
2018-05-06T22:28:27.197Z,40.16
2018-05-06T22:30:54.666Z,39.95
2018-05-06T22:33:22.236Z,42.74
2018-05-06T22:35:49.796Z,41.82
2018-05-06T22:38:17.277Z,42.48
2018-05-06T22:40:44.768Z,41.45
2018-05-06T22:43:12.304Z,41.79
2018-05-06T22:45:39.773Z,42.45
2018-05-06T22:48:07.276Z,41.15
2018-05-06T22:50:34.740Z,41.67
2018-05-06T22:53:02.257Z,44.16
2018-05-06T22:55:29.766Z,42.62
2018-05-06T22:57:57.246Z,41.86
2018-05-06T23:00:24.742Z,41.97
2018-05-06T23:02:52.260Z,42.91
2018-05-06T23:05:19.778Z,41.42
2018-05-06T23:07:47.383Z,41.85
2018-05-06T23:10:14.875Z,41.60
2018-05-06T23:12:42.717Z,42.64
2018-05-06T23:15:10.580Z,43.77
2018-05-06T23:17:38.580Z,41.89
2018-05-06T23:20:06.290Z,42.77
2018-05-06T23:22:33.776Z,42.85
2018-05-06T23:25:01.333Z,42.62
2018-05-06T23:27:28.872Z,42.65
2018-05-06T23:29:56.572Z,42.16
2018-05-06T23:32:24.172Z,43.74
2018-05-06T23:34:51.659Z,42.05
2018-05-06T23:37:19.155Z,43.15
2018-05-06T23:39:46.671Z,42.99
2018-05-06T23:42:14.151Z,43.59
2018-05-06T23:44:42.685Z,43.87
2018-05-06T23:47:10.189Z,43.00
2018-05-06T23:49:37.785Z,44.58
2018-05-06T23:52:05.312Z,46.18
2018-05-06T23:54:32.935Z,44.42
2018-05-06T23:57:00.552Z,45.81
2018-05-06T23:59:28.081Z,45.73
